LFLB 171900Z AUTO 24001KT 6000 NSC 02/01 Q1029 NOSIG

ElémentsDécodage
LFLB Station météo située sur l'aérodrome de CHAMBERY Aix-les-Bains
171900Z émis le 17 du mois à 19h00 UTC
AUTO Bulletin édité par un automate
24001KT vent du 240°, 01 noeuds
6000 visibilité horizontale de 6000 mètres
NSC pas de nuage significatif (pas de nuage <5000ft, pas de CB)
02/01 température 02°C, point de rosée 01°C
 soit une humidité relative de 93%
Q1029 la pression au niveau de la mer (QNH) est de 1029 hPa
NOSIG Pas de changement significatif prévu au cours des deux heures suivant l'heure de l'observation